sensor_id;sensor_type;location;lat;lon;timestamp;P1;durP1;ratioP1;P2;durP2;ratioP2
11964;SDS011;6042;41.326;19.826;2022-07-06T00:02:24;14.87;;;9.53;;
11964;SDS011;6042;41.326;19.826;2022-07-06T00:04:53;12.75;;;7.82;;
11964;SDS011;6042;41.326;19.826;2022-07-06T00:07:21;14.00;;;8.32;;
11964;SDS011;6042;41.326;19.826;2022-07-06T00:09:50;15.77;;;8.57;;
11964;SDS011;6042;41.326;19.826;2022-07-06T00:12:20;19.00;;;9.82;;
11964;SDS011;6042;41.326;19.826;2022-07-06T00:14:49;8.82;;;8.02;;
11964;SDS011;6042;41.326;19.826;2022-07-06T00:17:19;14.27;;;7.97;;
11964;SDS011;6042;41.326;19.826;2022-07-06T00:19:48;10.85;;;8.60;;
11964;SDS011;6042;41.326;19.826;2022-07-06T00:22:16;14.55;;;9.27;;
11964;SDS011;6042;41.326;19.826;2022-07-06T00:24:44;9.70;;;8.03;;
11964;SDS011;6042;41.326;19.826;2022-07-06T00:27:13;28.73;;;9.53;;
11964;SDS011;6042;41.326;19.826;2022-07-06T00:29:41;10.95;;;8.82;;
11964;SDS011;6042;41.326;19.826;2022-07-06T00:32:11;16.38;;;9.15;;
11964;SDS011;6042;41.326;19.826;2022-07-06T00:34:42;12.82;;;8.75;;
11964;SDS011;6042;41.326;19.826;2022-07-06T00:37:11;24.33;;;10.18;;
11964;SDS011;6042;41.326;19.826;2022-07-06T00:39:42;34.95;;;11.25;;
11964;SDS011;6042;41.326;19.826;2022-07-06T00:42:10;12.37;;;8.90;;
11964;SDS011;6042;41.326;19.826;2022-07-06T00:44:39;22.08;;;10.23;;
11964;SDS011;6042;41.326;19.826;2022-07-06T00:47:08;9.97;;;8.87;;
11964;SDS011;6042;41.326;19.826;2022-07-06T00:49:36;10.27;;;8.87;;
11964;SDS011;6042;41.326;19.826;2022-07-06T00:52:23;9.50;;;8.52;;
11964;SDS011;6042;41.326;19.826;2022-07-06T00:54:52;10.63;;;8.63;;
11964;SDS011;6042;41.326;19.826;2022-07-06T00:57:21;12.90;;;9.07;;
11964;SDS011;6042;41.326;19.826;2022-07-06T00:59:50;12.18;;;8.65;;
11964;SDS011;6042;41.326;19.826;2022-07-06T01:02:18;11.37;;;9.03;;
11964;SDS011;6042;41.326;19.826;2022-07-06T01:04:49;35.03;;;10.98;;
11964;SDS011;6042;41.326;19.826;2022-07-06T01:07:18;20.17;;;9.02;;
11964;SDS011;6042;41.326;19.826;2022-07-06T01:09:48;17.95;;;9.68;;
11964;SDS011;6042;41.326;19.826;2022-07-06T01:12:16;11.00;;;8.33;;
11964;SDS011;6042;41.326;19.826;2022-07-06T01:14:45;19.17;;;9.53;;
11964;SDS011;6042;41.326;19.826;2022-07-06T01:17:15;18.43;;;9.77;;
11964;SDS011;6042;41.326;19.826;2022-07-06T01:19:44;13.93;;;9.07;;
11964;SDS011;6042;41.326;19.826;2022-07-06T01:22:14;22.97;;;9.03;;
11964;SDS011;6042;41.326;19.826;2022-07-06T01:24:43;9.77;;;8.70;;
11964;SDS011;6042;41.326;19.826;2022-07-06T01:27:11;23.40;;;9.80;;
11964;SDS011;6042;41.326;19.826;2022-07-06T01:29:41;14.43;;;8.87;;
11964;SDS011;6042;41.326;19.826;2022-07-06T01:32:10;11.20;;;8.77;;
11964;SDS011;6042;41.326;19.826;2022-07-06T01:34:40;10.87;;;8.87;;
11964;SDS011;6042;41.326;19.826;2022-07-06T01:37:09;23.27;;;8.53;;
11964;SDS011;6042;41.326;19.826;2022-07-06T01:39:38;13.63;;;8.67;;
11964;SDS011;6042;41.326;19.826;2022-07-06T01:42:07;12.47;;;8.40;;
11964;SDS011;6042;41.326;19.826;2022-07-06T01:44:36;10.88;;;8.48;;
11964;SDS011;6042;41.326;19.826;2022-07-06T01:47:04;10.30;;;8.43;;
11964;SDS011;6042;41.326;19.826;2022-07-06T01:49:34;11.03;;;9.00;;
11964;SDS011;6042;41.326;19.826;2022-07-06T01:52:03;9.37;;;8.47;;
11964;SDS011;6042;41.326;19.826;2022-07-06T01:54:32;11.37;;;9.03;;
11964;SDS011;6042;41.326;19.826;2022-07-06T01:57:02;13.30;;;8.90;;
11964;SDS011;6042;41.326;19.826;2022-07-06T01:59:32;13.60;;;8.98;;
11964;SDS011;6042;41.326;19.826;2022-07-06T02:02:01;19.35;;;9.10;;
11964;SDS011;6042;41.326;19.826;2022-07-06T02:04:30;25.93;;;9.83;;
11964;SDS011;6042;41.326;19.826;2022-07-06T02:06:59;11.50;;;8.73;;
11964;SDS011;6042;41.326;19.826;2022-07-06T02:09:29;12.50;;;9.53;;
11964;SDS011;6042;41.326;19.826;2022-07-06T02:11:57;12.88;;;9.32;;
11964;SDS011;6042;41.326;19.826;2022-07-06T02:14:27;10.40;;;9.07;;
11964;SDS011;6042;41.326;19.826;2022-07-06T02:16:57;14.80;;;8.87;;
11964;SDS011;6042;41.326;19.826;2022-07-06T02:19:25;9.37;;;8.23;;
11964;SDS011;6042;41.326;19.826;2022-07-06T02:21:55;12.67;;;8.57;;
11964;SDS011;6042;41.326;19.826;2022-07-06T02:24:24;9.13;;;8.03;;
11964;SDS011;6042;41.326;19.826;2022-07-06T02:26:53;13.97;;;8.53;;
11964;SDS011;6042;41.326;19.826;2022-07-06T02:29:23;9.87;;;8.10;;
11964;SDS011;6042;41.326;19.826;2022-07-06T02:31:54;9.27;;;8.03;;
11964;SDS011;6042;41.326;19.826;2022-07-06T02:34:23;11.67;;;7.90;;
11964;SDS011;6042;41.326;19.826;2022-07-06T02:36:53;13.67;;;8.40;;
11964;SDS011;6042;41.326;19.826;2022-07-06T02:39:22;10.53;;;7.93;;
11964;SDS011;6042;41.326;19.826;2022-07-06T02:41:51;24.20;;;9.13;;
11964;SDS011;6042;41.326;19.826;2022-07-06T02:44:20;20.07;;;8.97;;
11964;SDS011;6042;41.326;19.826;2022-07-06T02:46:48;11.47;;;8.47;;
11964;SDS011;6042;41.326;19.826;2022-07-06T02:49:19;15.40;;;8.47;;
11964;SDS011;6042;41.326;19.826;2022-07-06T02:51:47;15.83;;;8.83;;
11964;SDS011;6042;41.326;19.826;2022-07-06T02:54:16;13.03;;;7.97;;
11964;SDS011;6042;41.326;19.826;2022-07-06T02:56:44;18.42;;;8.93;;
11964;SDS011;6042;41.326;19.826;2022-07-06T02:59:18;12.80;;;7.93;;
11964;SDS011;6042;41.326;19.826;2022-07-06T03:01:47;12.03;;;8.33;;
11964;SDS011;6042;41.326;19.826;2022-07-06T03:04:16;8.97;;;7.50;;
11964;SDS011;6042;41.326;19.826;2022-07-06T03:06:47;18.63;;;8.57;;
11964;SDS011;6042;41.326;19.826;2022-07-06T03:09:16;70.77;;;15.07;;
11964;SDS011;6042;41.326;19.826;2022-07-06T03:11:44;13.83;;;8.87;;
11964;SDS011;6042;41.326;19.826;2022-07-06T03:14:13;8.50;;;7.70;;
11964;SDS011;6042;41.326;19.826;2022-07-06T03:16:46;19.47;;;9.00;;
11964;SDS011;6042;41.326;19.826;2022-07-06T03:19:19;13.47;;;8.80;;
11964;SDS011;6042;41.326;19.826;2022-07-06T03:21:48;16.17;;;8.40;;
11964;SDS011;6042;41.326;19.826;2022-07-06T03:24:17;11.10;;;8.47;;
11964;SDS011;6042;41.326;19.826;2022-07-06T03:26:46;12.57;;;8.83;;
11964;SDS011;6042;41.326;19.826;2022-07-06T03:29:15;13.53;;;8.50;;
11964;SDS011;6042;41.326;19.826;2022-07-06T03:31:43;10.83;;;8.40;;
11964;SDS011;6042;41.326;19.826;2022-07-06T03:34:12;11.43;;;7.97;;
11964;SDS011;6042;41.326;19.826;2022-07-06T03:36:43;11.13;;;8.40;;
11964;SDS011;6042;41.326;19.826;2022-07-06T03:39:13;11.37;;;8.33;;
11964;SDS011;6042;41.326;19.826;2022-07-06T03:41:42;10.40;;;8.10;;
11964;SDS011;6042;41.326;19.826;2022-07-06T03:44:12;10.80;;;8.53;;
11964;SDS011;6042;41.326;19.826;2022-07-06T03:46:40;12.23;;;8.30;;
11964;SDS011;6042;41.326;19.826;2022-07-06T03:49:10;9.60;;;8.30;;
11964;SDS011;6042;41.326;19.826;2022-07-06T03:51:39;25.73;;;9.40;;
11964;SDS011;6042;41.326;19.826;2022-07-06T03:54:10;19.87;;;8.53;;
11964;SDS011;6042;41.326;19.826;2022-07-06T03:56:38;10.70;;;8.00;;
11964;SDS011;6042;41.326;19.826;2022-07-06T03:59:11;27.23;;;9.70;;
11964;SDS011;6042;41.326;19.826;2022-07-06T04:01:42;9.53;;;8.03;;
11964;SDS011;6042;41.326;19.826;2022-07-06T04:04:13;13.00;;;8.43;;
11964;SDS011;6042;41.326;19.826;2022-07-06T04:06:45;10.67;;;7.93;;
11964;SDS011;6042;41.326;19.826;2022-07-06T04:09:15;13.10;;;8.67;;
11964;SDS011;6042;41.326;19.826;2022-07-06T04:11:45;8.70;;;7.80;;
11964;SDS011;6042;41.326;19.826;2022-07-06T04:14:14;9.10;;;8.27;;
11964;SDS011;6042;41.326;19.826;2022-07-06T04:16:42;18.53;;;8.20;;
11964;SDS011;6042;41.326;19.826;2022-07-06T04:19:12;13.17;;;8.40;;
11964;SDS011;6042;41.326;19.826;2022-07-06T04:21:41;17.83;;;8.37;;
11964;SDS011;6042;41.326;19.826;2022-07-06T04:24:10;9.47;;;8.30;;
11964;SDS011;6042;41.326;19.826;2022-07-06T04:26:40;18.40;;;8.53;;
11964;SDS011;6042;41.326;19.826;2022-07-06T04:29:09;10.83;;;8.90;;
11964;SDS011;6042;41.326;19.826;2022-07-06T04:31:38;25.53;;;10.60;;
11964;SDS011;6042;41.326;19.826;2022-07-06T04:34:06;15.90;;;9.07;;
11964;SDS011;6042;41.326;19.826;2022-07-06T04:36:36;23.70;;;9.60;;
11964;SDS011;6042;41.326;19.826;2022-07-06T04:39:05;39.03;;;12.23;;
11964;SDS011;6042;41.326;19.826;2022-07-06T04:41:33;34.87;;;10.70;;
11964;SDS011;6042;41.326;19.826;2022-07-06T04:44:04;17.37;;;8.90;;
11964;SDS011;6042;41.326;19.826;2022-07-06T04:46:33;44.60;;;11.40;;
11964;SDS011;6042;41.326;19.826;2022-07-06T04:49:02;14.97;;;9.43;;
11964;SDS011;6042;41.326;19.826;2022-07-06T04:51:30;19.77;;;9.97;;
11964;SDS011;6042;41.326;19.826;2022-07-06T04:54:00;30.30;;;10.53;;
11964;SDS011;6042;41.326;19.826;2022-07-06T04:56:28;19.90;;;9.60;;
11964;SDS011;6042;41.326;19.826;2022-07-06T04:58:58;45.80;;;12.07;;
11964;SDS011;6042;41.326;19.826;2022-07-06T05:01:28;20.80;;;10.03;;
11964;SDS011;6042;41.326;19.826;2022-07-06T05:03:57;16.27;;;10.10;;
11964;SDS011;6042;41.326;19.826;2022-07-06T05:06:25;15.43;;;9.50;;
11964;SDS011;6042;41.326;19.826;2022-07-06T05:08:54;19.23;;;9.50;;
11964;SDS011;6042;41.326;19.826;2022-07-06T05:11:24;26.77;;;9.67;;
11964;SDS011;6042;41.326;19.826;2022-07-06T05:13:53;14.30;;;9.05;;
11964;SDS011;6042;41.326;19.826;2022-07-06T05:16:22;14.73;;;9.13;;
11964;SDS011;6042;41.326;19.826;2022-07-06T05:18:53;9.15;;;8.27;;
11964;SDS011;6042;41.326;19.826;2022-07-06T05:21:22;11.43;;;8.20;;
11964;SDS011;6042;41.326;19.826;2022-07-06T05:23:50;12.90;;;7.97;;
11964;SDS011;6042;41.326;19.826;2022-07-06T05:26:20;13.23;;;8.70;;
11964;SDS011;6042;41.326;19.826;2022-07-06T05:28:48;9.60;;;8.63;;
11964;SDS011;6042;41.326;19.826;2022-07-06T05:31:20;18.73;;;9.40;;
11964;SDS011;6042;41.326;19.826;2022-07-06T05:33:49;15.30;;;9.00;;
11964;SDS011;6042;41.326;19.826;2022-07-06T05:36:18;12.25;;;9.85;;
11964;SDS011;6042;41.326;19.826;2022-07-06T05:38:47;20.15;;;10.38;;
11964;SDS011;6042;41.326;19.826;2022-07-06T05:41:17;47.08;;;12.45;;
11964;SDS011;6042;41.326;19.826;2022-07-06T05:43:46;30.60;;;11.93;;
11964;SDS011;6042;41.326;19.826;2022-07-06T05:46:14;24.38;;;10.73;;
11964;SDS011;6042;41.326;19.826;2022-07-06T05:48:44;33.83;;;11.27;;
11964;SDS011;6042;41.326;19.826;2022-07-06T05:51:31;28.88;;;11.93;;
11964;SDS011;6042;41.326;19.826;2022-07-06T05:54:00;26.98;;;11.05;;
11964;SDS011;6042;41.326;19.826;2022-07-06T05:56:29;58.65;;;16.08;;
11964;SDS011;6042;41.326;19.826;2022-07-06T05:58:59;15.23;;;9.70;;
11964;SDS011;6042;41.326;19.826;2022-07-06T06:01:29;15.82;;;9.95;;
11964;SDS011;6042;41.326;19.826;2022-07-06T06:04:07;15.43;;;10.57;;
11964;SDS011;6042;41.326;19.826;2022-07-06T06:06:37;16.83;;;9.80;;
11964;SDS011;6042;41.326;19.826;2022-07-06T06:09:06;13.07;;;10.38;;
11964;SDS011;6042;41.326;19.826;2022-07-06T06:11:34;13.70;;;9.98;;
11964;SDS011;6042;41.326;19.826;2022-07-06T06:14:04;13.10;;;9.82;;
11964;SDS011;6042;41.326;19.826;2022-07-06T06:16:33;13.05;;;9.85;;
11964;SDS011;6042;41.326;19.826;2022-07-06T06:19:01;17.90;;;10.02;;
11964;SDS011;6042;41.326;19.826;2022-07-06T06:21:30;15.13;;;9.77;;
11964;SDS011;6042;41.326;19.826;2022-07-06T06:24:00;28.33;;;10.65;;
11964;SDS011;6042;41.326;19.826;2022-07-06T06:26:28;48.13;;;12.45;;
11964;SDS011;6042;41.326;19.826;2022-07-06T06:28:57;30.70;;;11.10;;
11964;SDS011;6042;41.326;19.826;2022-07-06T06:31:26;21.77;;;10.63;;
11964;SDS011;6042;41.326;19.826;2022-07-06T06:33:55;13.52;;;9.82;;
11964;SDS011;6042;41.326;19.826;2022-07-06T06:36:23;16.17;;;9.27;;
11964;SDS011;6042;41.326;19.826;2022-07-06T06:38:52;11.25;;;9.18;;
11964;SDS011;6042;41.326;19.826;2022-07-06T06:41:23;17.48;;;9.52;;
11964;SDS011;6042;41.326;19.826;2022-07-06T06:43:52;14.90;;;9.38;;
11964;SDS011;6042;41.326;19.826;2022-07-06T06:46:26;14.43;;;9.15;;
11964;SDS011;6042;41.326;19.826;2022-07-06T06:48:55;12.55;;;9.23;;
11964;SDS011;6042;41.326;19.826;2022-07-06T06:51:23;12.07;;;9.18;;
11964;SDS011;6042;41.326;19.826;2022-07-06T06:53:52;10.98;;;8.95;;
11964;SDS011;6042;41.326;19.826;2022-07-06T06:56:21;18.25;;;9.43;;
11964;SDS011;6042;41.326;19.826;2022-07-06T06:58:50;13.77;;;9.07;;
11964;SDS011;6042;41.326;19.826;2022-07-06T07:01:39;17.60;;;10.05;;
11964;SDS011;6042;41.326;19.826;2022-07-06T07:04:08;20.40;;;10.20;;
11964;SDS011;6042;41.326;19.826;2022-07-06T07:06:37;25.67;;;11.18;;
11964;SDS011;6042;41.326;19.826;2022-07-06T07:09:05;10.60;;;9.45;;
11964;SDS011;6042;41.326;19.826;2022-07-06T07:11:34;16.48;;;9.60;;
11964;SDS011;6042;41.326;19.826;2022-07-06T07:14:04;12.02;;;9.80;;
11964;SDS011;6042;41.326;19.826;2022-07-06T07:16:33;12.90;;;9.80;;
11964;SDS011;6042;41.326;19.826;2022-07-06T07:19:02;11.48;;;10.27;;
11964;SDS011;6042;41.326;19.826;2022-07-06T07:21:30;15.05;;;10.43;;
11964;SDS011;6042;41.326;19.826;2022-07-06T07:23:59;12.48;;;9.70;;
11964;SDS011;6042;41.326;19.826;2022-07-06T07:26:35;15.60;;;10.65;;
11964;SDS011;6042;41.326;19.826;2022-07-06T07:29:05;10.55;;;9.55;;
11964;SDS011;6042;41.326;19.826;2022-07-06T07:31:34;13.20;;;10.10;;
11964;SDS011;6042;41.326;19.826;2022-07-06T07:34:02;17.80;;;10.63;;
11964;SDS011;6042;41.326;19.826;2022-07-06T07:36:31;17.00;;;10.13;;
11964;SDS011;6042;41.326;19.826;2022-07-06T07:38:59;12.32;;;10.20;;
11964;SDS011;6042;41.326;19.826;2022-07-06T07:41:29;13.43;;;10.02;;
11964;SDS011;6042;41.326;19.826;2022-07-06T07:43:58;13.80;;;10.95;;
11964;SDS011;6042;41.326;19.826;2022-07-06T07:46:28;13.55;;;10.68;;
11964;SDS011;6042;41.326;19.826;2022-07-06T07:48:57;13.43;;;10.30;;
11964;SDS011;6042;41.326;19.826;2022-07-06T07:51:27;12.77;;;10.10;;
11964;SDS011;6042;41.326;19.826;2022-07-06T07:53:55;15.27;;;10.40;;
11964;SDS011;6042;41.326;19.826;2022-07-06T07:56:24;16.42;;;10.68;;
11964;SDS011;6042;41.326;19.826;2022-07-06T07:58:53;12.25;;;11.05;;
11964;SDS011;6042;41.326;19.826;2022-07-06T08:01:26;12.02;;;10.80;;
11964;SDS011;6042;41.326;19.826;2022-07-06T08:03:58;15.73;;;11.77;;
11964;SDS011;6042;41.326;19.826;2022-07-06T08:06:26;17.42;;;12.43;;
11964;SDS011;6042;41.326;19.826;2022-07-06T08:08:55;17.48;;;10.93;;
11964;SDS011;6042;41.326;19.826;2022-07-06T08:11:23;16.77;;;10.25;;
11964;SDS011;6042;41.326;19.826;2022-07-06T08:13:52;13.57;;;10.55;;
11964;SDS011;6042;41.326;19.826;2022-07-06T08:16:20;12.98;;;10.45;;
11964;SDS011;6042;41.326;19.826;2022-07-06T08:18:51;13.20;;;9.63;;
11964;SDS011;6042;41.326;19.826;2022-07-06T08:21:19;14.43;;;10.02;;
11964;SDS011;6042;41.326;19.826;2022-07-06T08:23:52;15.48;;;10.02;;
11964;SDS011;6042;41.326;19.826;2022-07-06T08:26:21;12.18;;;8.57;;
11964;SDS011;6042;41.326;19.826;2022-07-06T08:28:49;12.32;;;8.88;;
11964;SDS011;6042;41.326;19.826;2022-07-06T08:31:18;12.63;;;9.35;;
11964;SDS011;6042;41.326;19.826;2022-07-06T08:34:08;13.32;;;8.95;;
11964;SDS011;6042;41.326;19.826;2022-07-06T08:36:37;10.02;;;8.73;;
11964;SDS011;6042;41.326;19.826;2022-07-06T08:39:05;11.13;;;8.25;;
11964;SDS011;6042;41.326;19.826;2022-07-06T08:41:35;11.57;;;8.52;;
11964;SDS011;6042;41.326;19.826;2022-07-06T08:44:05;11.55;;;8.30;;
11964;SDS011;6042;41.326;19.826;2022-07-06T08:46:35;10.25;;;8.90;;
11964;SDS011;6042;41.326;19.826;2022-07-06T08:49:07;13.10;;;9.32;;
11964;SDS011;6042;41.326;19.826;2022-07-06T08:51:40;13.60;;;9.48;;
11964;SDS011;6042;41.326;19.826;2022-07-06T08:54:09;9.68;;;8.68;;
11964;SDS011;6042;41.326;19.826;2022-07-06T08:56:39;9.40;;;8.18;;
11964;SDS011;6042;41.326;19.826;2022-07-06T08:59:14;9.85;;;8.32;;
11964;SDS011;6042;41.326;19.826;2022-07-06T09:01:43;10.15;;;8.60;;
11964;SDS011;6042;41.326;19.826;2022-07-06T09:04:15;10.10;;;8.50;;
11964;SDS011;6042;41.326;19.826;2022-07-06T09:06:46;11.80;;;8.68;;
11964;SDS011;6042;41.326;19.826;2022-07-06T09:09:17;14.30;;;8.55;;
11964;SDS011;6042;41.326;19.826;2022-07-06T09:11:48;9.00;;;7.82;;
11964;SDS011;6042;41.326;19.826;2022-07-06T09:14:17;9.50;;;8.60;;
11964;SDS011;6042;41.326;19.826;2022-07-06T09:16:49;14.75;;;8.88;;
11964;SDS011;6042;41.326;19.826;2022-07-06T09:19:22;10.02;;;8.68;;
11964;SDS011;6042;41.326;19.826;2022-07-06T09:21:51;9.82;;;8.82;;
11964;SDS011;6042;41.326;19.826;2022-07-06T09:24:20;10.00;;;9.05;;
11964;SDS011;6042;41.326;19.826;2022-07-06T09:26:49;14.30;;;9.57;;
11964;SDS011;6042;41.326;19.826;2022-07-06T09:29:18;21.00;;;10.10;;
11964;SDS011;6042;41.326;19.826;2022-07-06T09:31:56;9.30;;;6.93;;
11964;SDS011;6042;41.326;19.826;2022-07-06T09:34:34;12.55;;;8.48;;
11964;SDS011;6042;41.326;19.826;2022-07-06T09:37:09;10.35;;;6.53;;
11964;SDS011;6042;41.326;19.826;2022-07-06T09:39:38;8.30;;;6.32;;
11964;SDS011;6042;41.326;19.826;2022-07-06T09:42:07;10.93;;;6.93;;
11964;SDS011;6042;41.326;19.826;2022-07-06T09:44:36;10.57;;;5.50;;
11964;SDS011;6042;41.326;19.826;2022-07-06T09:47:06;11.18;;;6.57;;
11964;SDS011;6042;41.326;19.826;2022-07-06T09:49:38;10.27;;;5.75;;
11964;SDS011;6042;41.326;19.826;2022-07-06T09:52:08;9.60;;;5.65;;
11964;SDS011;6042;41.326;19.826;2022-07-06T09:54:38;8.50;;;6.03;;
11964;SDS011;6042;41.326;19.826;2022-07-06T09:57:07;6.28;;;4.80;;
11964;SDS011;6042;41.326;19.826;2022-07-06T09:59:36;5.78;;;4.25;;
11964;SDS011;6042;41.326;19.826;2022-07-06T10:02:05;6.07;;;4.13;;
11964;SDS011;6042;41.326;19.826;2022-07-06T10:04:35;8.70;;;4.13;;
11964;SDS011;6042;41.326;19.826;2022-07-06T10:07:05;8.45;;;4.55;;
11964;SDS011;6042;41.326;19.826;2022-07-06T10:09:37;6.95;;;3.95;;
11964;SDS011;6042;41.326;19.826;2022-07-06T10:12:06;6.38;;;3.47;;
11964;SDS011;6042;41.326;19.826;2022-07-06T10:14:40;8.68;;;4.78;;
11964;SDS011;6042;41.326;19.826;2022-07-06T10:17:16;9.20;;;4.15;;
11964;SDS011;6042;41.326;19.826;2022-07-06T10:19:46;6.22;;;4.10;;
11964;SDS011;6042;41.326;19.826;2022-07-06T10:22:17;7.80;;;4.07;;
11964;SDS011;6042;41.326;19.826;2022-07-06T10:24:47;8.15;;;3.30;;
11964;SDS011;6042;41.326;19.826;2022-07-06T10:27:18;8.70;;;3.80;;
11964;SDS011;6042;41.326;19.826;2022-07-06T10:29:46;7.07;;;3.30;;
11964;SDS011;6042;41.326;19.826;2022-07-06T10:32:16;8.98;;;3.38;;
11964;SDS011;6042;41.326;19.826;2022-07-06T10:34:47;4.00;;;3.25;;
11964;SDS011;6042;41.326;19.826;2022-07-06T10:37:23;9.90;;;3.33;;
11964;SDS011;6042;41.326;19.826;2022-07-06T10:39:55;6.35;;;3.40;;
11964;SDS011;6042;41.326;19.826;2022-07-06T10:42:43;8.32;;;3.30;;
11964;SDS011;6042;41.326;19.826;2022-07-06T10:45:19;5.78;;;3.42;;
11964;SDS011;6042;41.326;19.826;2022-07-06T10:48:15;5.43;;;3.10;;
11964;SDS011;6042;41.326;19.826;2022-07-06T10:50:46;5.07;;;2.97;;
11964;SDS011;6042;41.326;19.826;2022-07-06T10:53:21;6.82;;;3.17;;
11964;SDS011;6042;41.326;19.826;2022-07-06T10:55:51;6.20;;;2.85;;
11964;SDS011;6042;41.326;19.826;2022-07-06T10:58:37;7.47;;;3.33;;
11964;SDS011;6042;41.326;19.826;2022-07-06T11:01:13;5.75;;;3.58;;
11964;SDS011;6042;41.326;19.826;2022-07-06T11:03:43;5.18;;;3.63;;
11964;SDS011;6042;41.326;19.826;2022-07-06T11:06:14;4.90;;;3.70;;
11964;SDS011;6042;41.326;19.826;2022-07-06T11:08:52;5.00;;;3.40;;
11964;SDS011;6042;41.326;19.826;2022-07-06T11:11:24;4.18;;;3.15;;
11964;SDS011;6042;41.326;19.826;2022-07-06T11:13:54;4.38;;;3.53;;
11964;SDS011;6042;41.326;19.826;2022-07-06T11:16:26;6.85;;;3.25;;
11964;SDS011;6042;41.326;19.826;2022-07-06T11:19:05;8.40;;;3.95;;
11964;SDS011;6042;41.326;19.826;2022-07-06T11:21:37;6.60;;;3.58;;
11964;SDS011;6042;41.326;19.826;2022-07-06T11:24:09;4.18;;;2.90;;
11964;SDS011;6042;41.326;19.826;2022-07-06T11:26:39;9.07;;;3.80;;
11964;SDS011;6042;41.326;19.826;2022-07-06T11:29:10;9.35;;;3.55;;
11964;SDS011;6042;41.326;19.826;2022-07-06T11:31:40;11.75;;;3.45;;
11964;SDS011;6042;41.326;19.826;2022-07-06T11:34:10;7.53;;;3.47;;
11964;SDS011;6042;41.326;19.826;2022-07-06T11:36:40;7.07;;;3.00;;
11964;SDS011;6042;41.326;19.826;2022-07-06T11:39:13;6.38;;;2.65;;
11964;SDS011;6042;41.326;19.826;2022-07-06T11:41:42;6.88;;;3.22;;
11964;SDS011;6042;41.326;19.826;2022-07-06T11:44:17;10.32;;;3.13;;
11964;SDS011;6042;41.326;19.826;2022-07-06T11:46:46;6.47;;;2.88;;
11964;SDS011;6042;41.326;19.826;2022-07-06T11:49:15;11.13;;;2.95;;
11964;SDS011;6042;41.326;19.826;2022-07-06T11:51:45;5.78;;;2.75;;
11964;SDS011;6042;41.326;19.826;2022-07-06T11:54:16;7.38;;;3.17;;
11964;SDS011;6042;41.326;19.826;2022-07-06T11:56:47;10.07;;;2.58;;
11964;SDS011;6042;41.326;19.826;2022-07-06T11:59:16;7.20;;;2.88;;
11964;SDS011;6042;41.326;19.826;2022-07-06T12:01:48;9.88;;;3.00;;
11964;SDS011;6042;41.326;19.826;2022-07-06T12:04:18;6.22;;;3.17;;
11964;SDS011;6042;41.326;19.826;2022-07-06T12:06:52;6.05;;;2.65;;
11964;SDS011;6042;41.326;19.826;2022-07-06T12:09:22;6.30;;;2.53;;
11964;SDS011;6042;41.326;19.826;2022-07-06T12:11:51;11.73;;;3.35;;
11964;SDS011;6042;41.326;19.826;2022-07-06T12:14:20;7.07;;;2.85;;
11964;SDS011;6042;41.326;19.826;2022-07-06T12:16:49;7.90;;;2.80;;
11964;SDS011;6042;41.326;19.826;2022-07-06T12:19:19;8.85;;;3.28;;
11964;SDS011;6042;41.326;19.826;2022-07-06T12:21:50;6.93;;;2.92;;
11964;SDS011;6042;41.326;19.826;2022-07-06T12:24:20;10.30;;;3.22;;
11964;SDS011;6042;41.326;19.826;2022-07-06T12:26:52;4.88;;;2.53;;
11964;SDS011;6042;41.326;19.826;2022-07-06T12:29:21;10.18;;;2.72;;
11964;SDS011;6042;41.326;19.826;2022-07-06T12:31:51;9.52;;;2.60;;
11964;SDS011;6042;41.326;19.826;2022-07-06T12:34:21;6.10;;;2.67;;
11964;SDS011;6042;41.326;19.826;2022-07-06T12:36:51;5.07;;;2.15;;
11964;SDS011;6042;41.326;19.826;2022-07-06T12:39:23;6.47;;;2.63;;
11964;SDS011;6042;41.326;19.826;2022-07-06T12:41:54;5.95;;;2.50;;
11964;SDS011;6042;41.326;19.826;2022-07-06T12:44:29;4.55;;;2.58;;
11964;SDS011;6042;41.326;19.826;2022-07-06T12:47:01;5.28;;;2.35;;
11964;SDS011;6042;41.326;19.826;2022-07-06T12:49:31;5.60;;;2.28;;
11964;SDS011;6042;41.326;19.826;2022-07-06T12:52:01;6.95;;;2.92;;
11964;SDS011;6042;41.326;19.826;2022-07-06T12:54:41;3.72;;;2.58;;
11964;SDS011;6042;41.326;19.826;2022-07-06T12:57:11;6.72;;;2.67;;
11964;SDS011;6042;41.326;19.826;2022-07-06T12:59:41;10.90;;;3.22;;
11964;SDS011;6042;41.326;19.826;2022-07-06T13:02:19;5.35;;;2.40;;
11964;SDS011;6042;41.326;19.826;2022-07-06T13:05:11;5.30;;;2.95;;
11964;SDS011;6042;41.326;19.826;2022-07-06T13:07:44;5.97;;;2.30;;
11964;SDS011;6042;41.326;19.826;2022-07-06T13:10:15;4.80;;;2.45;;
11964;SDS011;6042;41.326;19.826;2022-07-06T13:12:44;6.50;;;2.40;;
11964;SDS011;6042;41.326;19.826;2022-07-06T13:15:12;6.72;;;2.78;;
11964;SDS011;6042;41.326;19.826;2022-07-06T13:17:41;4.03;;;2.15;;
11964;SDS011;6042;41.326;19.826;2022-07-06T13:20:11;10.15;;;2.40;;
11964;SDS011;6042;41.326;19.826;2022-07-06T13:22:40;11.68;;;3.30;;
11964;SDS011;6042;41.326;19.826;2022-07-06T13:25:09;6.38;;;2.33;;
11964;SDS011;6042;41.326;19.826;2022-07-06T13:27:41;5.35;;;2.05;;
11964;SDS011;6042;41.326;19.826;2022-07-06T13:30:10;7.30;;;2.78;;
11964;SDS011;6042;41.326;19.826;2022-07-06T13:32:40;3.67;;;2.08;;
11964;SDS011;6042;41.326;19.826;2022-07-06T13:35:08;7.97;;;2.50;;
11964;SDS011;6042;41.326;19.826;2022-07-06T13:37:37;5.80;;;2.40;;
11964;SDS011;6042;41.326;19.826;2022-07-06T13:40:06;14.65;;;4.13;;
11964;SDS011;6042;41.326;19.826;2022-07-06T13:42:36;9.27;;;3.30;;
11964;SDS011;6042;41.326;19.826;2022-07-06T13:45:06;10.50;;;3.25;;
11964;SDS011;6042;41.326;19.826;2022-07-06T13:47:35;7.05;;;2.40;;
11964;SDS011;6042;41.326;19.826;2022-07-06T13:50:04;6.13;;;2.58;;
11964;SDS011;6042;41.326;19.826;2022-07-06T13:52:33;4.82;;;2.15;;
11964;SDS011;6042;41.326;19.826;2022-07-06T13:55:02;3.63;;;2.13;;
11964;SDS011;6042;41.326;19.826;2022-07-06T13:57:32;9.48;;;2.60;;
11964;SDS011;6042;41.326;19.826;2022-07-06T14:00:02;6.38;;;2.42;;
11964;SDS011;6042;41.326;19.826;2022-07-06T14:02:35;4.75;;;2.67;;
11964;SDS011;6042;41.326;19.826;2022-07-06T14:05:05;3.88;;;2.05;;
11964;SDS011;6042;41.326;19.826;2022-07-06T14:07:34;3.58;;;2.10;;
11964;SDS011;6042;41.326;19.826;2022-07-06T14:10:03;11.35;;;2.35;;
11964;SDS011;6042;41.326;19.826;2022-07-06T14:12:32;11.13;;;2.70;;
11964;SDS011;6042;41.326;19.826;2022-07-06T14:15:01;8.32;;;2.50;;
11964;SDS011;6042;41.326;19.826;2022-07-06T14:17:30;6.85;;;2.35;;
11964;SDS011;6042;41.326;19.826;2022-07-06T14:20:00;6.72;;;2.50;;
11964;SDS011;6042;41.326;19.826;2022-07-06T14:22:28;4.93;;;2.67;;
11964;SDS011;6042;41.326;19.826;2022-07-06T14:24:57;5.95;;;2.20;;
11964;SDS011;6042;41.326;19.826;2022-07-06T14:27:25;4.38;;;2.22;;
11964;SDS011;6042;41.326;19.826;2022-07-06T14:29:54;4.82;;;2.58;;
11964;SDS011;6042;41.326;19.826;2022-07-06T14:32:23;6.28;;;2.15;;
11964;SDS011;6042;41.326;19.826;2022-07-06T14:34:52;4.55;;;2.20;;
11964;SDS011;6042;41.326;19.826;2022-07-06T14:37:21;6.18;;;2.28;;
11964;SDS011;6042;41.326;19.826;2022-07-06T14:39:50;6.95;;;2.10;;
11964;SDS011;6042;41.326;19.826;2022-07-06T14:42:19;4.57;;;2.08;;
11964;SDS011;6042;41.326;19.826;2022-07-06T14:44:47;9.55;;;2.05;;
11964;SDS011;6042;41.326;19.826;2022-07-06T14:47:19;7.55;;;2.67;;
11964;SDS011;6042;41.326;19.826;2022-07-06T14:49:47;6.18;;;1.95;;
11964;SDS011;6042;41.326;19.826;2022-07-06T14:52:17;9.55;;;2.20;;
11964;SDS011;6042;41.326;19.826;2022-07-06T14:54:47;5.93;;;1.85;;
11964;SDS011;6042;41.326;19.826;2022-07-06T14:57:16;4.38;;;1.77;;